Time;durP1;ratioP1;P1;durP2;ratioP2;P2;SDS_P1;SDS_P2;PMS_P1;PMS_P2;Temp;Humidity;BMP_temperature;BMP_pressure;BME280_temperature;BME280_humidity;BME280_pressure;Samples;Min_cycle;Max_cycle;Signal;HPM_P1;HPM_P2
2023/04/11 00:02:07;;;;;;;3.85;1.45;;;8.60;99.90;;;;;;5072985;28;20016;-63
2023/04/11 00:04:33;;;;;;;5.25;1.52;;;8.50;99.90;;;;;;5073499;28;20024;-63
2023/04/11 00:06:59;;;;;;;7.40;1.95;;;8.50;99.90;;;;;;5058601;28;20059;-63
2023/04/11 00:09:25;;;;;;;5.60;2.03;;;8.50;99.90;;;;;;5035600;28;20040;-63
2023/04/11 00:11:51;;;;;;;4.93;1.90;;;8.40;99.90;;;;;;5053275;28;20021;-63
2023/04/11 00:14:17;;;;;;;6.75;1.80;;;8.40;99.90;;;;;;5034846;28;20473;-63
2023/04/11 00:16:43;;;;;;;12.43;3.00;;;8.40;99.90;;;;;;5053427;28;20031;-63
2023/04/11 00:19:09;;;;;;;9.00;2.78;;;8.40;99.90;;;;;;5053122;28;20037;-63
2023/04/11 00:21:38;;;;;;;9.50;2.35;;;8.40;99.90;;;;;;5052972;28;20040;-63
2023/04/11 00:24:07;;;;;;;7.95;2.45;;;8.40;99.90;;;;;;5052030;28;20439;-63
2023/04/11 00:26:32;;;;;;;10.30;2.80;;;8.40;99.90;;;;;;5053128;28;20083;-63
2023/04/11 00:28:58;;;;;;;12.82;3.20;;;8.40;99.90;;;;;;5052188;28;20060;-63
2023/04/11 00:31:24;;;;;;;18.25;3.63;;;8.40;99.90;;;;;;5053220;28;20025;-63
2023/04/11 00:33:49;;;;;;;13.15;3.22;;;8.40;99.90;;;;;;5052787;28;20021;-63
2023/04/11 00:36:15;;;;;;;11.57;3.70;;;8.50;99.90;;;;;;5034671;28;20358;-63
2023/04/11 00:38:41;;;;;;;14.40;4.30;;;8.50;99.90;;;;;;5052899;28;20028;-63
2023/04/11 00:41:07;;;;;;;14.88;3.70;;;8.50;99.90;;;;;;5052438;28;20040;-63
2023/04/11 00:43:33;;;;;;;15.60;3.80;;;8.60;99.90;;;;;;5052369;28;20025;-63
2023/04/11 00:45:59;;;;;;;16.70;4.30;;;8.60;99.90;;;;;;5052399;28;20029;-63
2023/04/11 00:48:27;;;;;;;16.13;3.88;;;8.70;99.90;;;;;;5052916;28;20009;-63
2023/04/11 00:50:53;;;;;;;16.65;4.70;;;8.70;99.90;;;;;;5034367;28;20064;-63
2023/04/11 00:53:19;;;;;;;13.98;4.57;;;8.70;99.90;;;;;;5052705;28;20028;-63
2023/04/11 00:55:45;;;;;;;15.63;5.72;;;8.70;99.90;;;;;;5052456;28;20469;-63
2023/04/11 00:58:12;;;;;;;20.38;4.82;;;8.80;99.90;;;;;;5034316;28;20067;-63
2023/04/11 01:00:38;;;;;;;15.68;4.25;;;8.80;99.90;;;;;;5034977;28;20044;-63
2023/04/11 01:03:04;;;;;;;19.80;4.45;;;8.90;99.90;;;;;;5052378;28;20029;-63
2023/04/11 01:05:32;;;;;;;17.25;4.10;;;8.90;99.90;;;;;;5051977;28;20481;-64
2023/04/11 01:07:58;;;;;;;14.63;3.97;;;9.00;99.90;;;;;;5052215;28;20035;-63
2023/04/11 01:10:27;;;;;;;14.68;4.30;;;9.00;99.90;;;;;;5052113;28;20108;-64
2023/04/11 01:12:54;;;;;;;18.70;4.45;;;9.00;99.90;;;;;;5034174;28;20029;-63
2023/04/11 01:15:20;;;;;;;20.33;5.53;;;9.00;99.90;;;;;;5052521;28;20553;-64
2023/04/11 01:17:46;;;;;;;21.23;4.97;;;9.10;99.90;;;;;;5051571;28;20100;-63
2023/04/11 01:20:13;;;;;;;23.25;4.72;;;9.20;99.90;;;;;;5034441;28;20485;-63
2023/04/11 01:22:40;;;;;;;27.25;4.68;;;9.20;99.90;;;;;;5034344;28;20116;-63
2023/04/11 01:25:06;;;;;;;16.55;5.57;;;9.10;99.90;;;;;;5051630;28;20389;-63
2023/04/11 01:27:32;;;;;;;17.02;4.35;;;9.10;99.90;;;;;;5052441;28;20021;-63
2023/04/11 01:29:59;;;;;;;13.75;4.00;;;9.00;99.90;;;;;;5052037;28;20021;-63
2023/04/11 01:32:25;;;;;;;19.13;4.78;;;9.00;99.90;;;;;;5051488;28;20504;-63
2023/04/11 01:34:52;;;;;;;24.77;4.35;;;9.00;99.90;;;;;;5033563;28;20025;-63
2023/04/11 01:37:18;;;;;;;18.30;4.05;;;9.00;99.90;;;;;;5052099;28;20102;-63
2023/04/11 01:39:43;;;;;;;21.52;4.38;;;9.00;99.90;;;;;;5051193;28;20508;-63
2023/04/11 01:42:10;;;;;;;17.70;3.72;;;9.00;99.90;;;;;;5052226;28;20029;-63
2023/04/11 01:44:36;;;;;;;18.95;4.47;;;9.00;99.90;;;;;;5034345;28;20013;-63
2023/04/11 01:47:02;;;;;;;20.90;4.40;;;9.00;99.90;;;;;;5051225;28;20021;-63
2023/04/11 01:49:28;;;;;;;22.25;5.18;;;9.00;99.90;;;;;;5052093;28;20025;-63
2023/04/11 01:51:53;;;;;;;15.20;3.65;;;9.10;99.90;;;;;;5033835;28;20029;-63
2023/04/11 01:54:19;;;;;;;21.27;4.32;;;9.10;99.90;;;;;;5051428;28;20025;-63
2023/04/11 01:56:45;;;;;;;16.33;3.58;;;9.10;99.90;;;;;;5033647;28;20075;-63
2023/04/11 01:59:10;;;;;;;17.27;3.85;;;9.00;99.90;;;;;;5051868;28;20144;-63
2023/04/11 02:01:36;;;;;;;26.25;4.65;;;9.00;99.90;;;;;;5051242;28;20055;-63
2023/04/11 02:04:02;;;;;;;17.05;3.35;;;9.00;99.90;;;;;;5051684;28;20031;-63
2023/04/11 02:06:27;;;;;;;16.60;3.63;;;9.00;99.90;;;;;;5033330;28;20021;-63
2023/04/11 02:08:53;;;;;;;25.02;4.10;;;8.90;99.90;;;;;;5051342;28;20078;-63
2023/04/11 02:11:19;;;;;;;19.88;4.07;;;8.90;99.90;;;;;;5051854;28;20025;-63
2023/04/11 02:13:45;;;;;;;17.33;3.25;;;8.80;99.90;;;;;;5033021;28;20775;-63
2023/04/11 02:16:16;;;;;;;15.15;3.42;;;8.80;99.90;;;;;;5052046;28;20033;-63
2023/04/11 02:18:43;;;;;;;20.48;3.78;;;8.80;99.90;;;;;;5034180;28;20029;-63
2023/04/11 02:21:09;;;;;;;22.95;3.60;;;8.70;99.90;;;;;;5051338;28;20513;-63
2023/04/11 02:23:35;;;;;;;19.70;4.20;;;8.80;99.90;;;;;;5051808;28;20024;-63
2023/04/11 02:26:02;;;;;;;11.63;3.30;;;8.70;99.90;;;;;;5051292;28;20033;-63
2023/04/11 02:28:28;;;;;;;11.38;3.58;;;8.80;99.90;;;;;;5050980;28;20018;-63
2023/04/11 02:30:54;;;;;;;17.50;3.88;;;8.80;99.90;;;;;;5051386;28;20024;-63
2023/04/11 02:33:20;;;;;;;16.20;3.38;;;8.90;99.90;;;;;;5051860;28;20104;-63
2023/04/11 02:35:46;;;;;;;13.73;3.50;;;8.90;99.90;;;;;;5032754;28;20108;-63
2023/04/11 02:38:12;;;;;;;17.10;3.08;;;8.90;99.90;;;;;;5051569;28;20040;-63
2023/04/11 02:40:37;;;;;;;11.80;3.60;;;9.00;99.90;;;;;;5051178;28;20434;-63
2023/04/11 02:43:03;;;;;;;16.52;3.42;;;8.90;99.90;;;;;;5032955;28;20021;-63
2023/04/11 02:45:29;;;;;;;18.27;3.13;;;8.90;99.90;;;;;;5034047;28;21090;-63
2023/04/11 02:47:55;;;;;;;20.40;3.58;;;8.80;99.90;;;;;;5035971;28;20039;-63
2023/04/11 02:50:20;;;;;;;18.02;3.72;;;8.80;99.90;;;;;;5054551;28;20029;-63
2023/04/11 02:52:48;;;;;;;14.52;3.38;;;8.70;99.90;;;;;;5036667;28;20017;-63
2023/04/11 02:55:13;;;;;;;17.35;3.15;;;8.70;99.90;;;;;;5055156;28;20056;-63
2023/04/11 02:57:39;;;;;;;15.65;3.35;;;8.80;99.90;;;;;;5054376;28;20055;-63
2023/04/11 03:00:06;;;;;;;18.05;3.55;;;8.80;99.90;;;;;;5054785;28;20606;-63
2023/04/11 03:02:32;;;;;;;14.75;3.38;;;8.80;99.90;;;;;;5054931;28;20067;-63
2023/04/11 03:05:02;;;;;;;16.63;3.35;;;8.80;99.90;;;;;;5053627;28;20492;-63
2023/04/11 03:07:28;;;;;;;17.33;2.92;;;8.80;99.90;;;;;;5054801;28;20028;-63
2023/04/11 03:09:53;;;;;;;16.13;3.50;;;8.80;99.90;;;;;;5054057;28;20032;-63
2023/04/11 03:12:19;;;;;;;9.88;3.25;;;8.80;99.90;;;;;;5036804;28;20013;-64
2023/04/11 03:14:44;;;;;;;18.92;3.55;;;8.80;99.90;;;;;;5054393;28;20029;-63
2023/04/11 03:17:10;;;;;;;12.38;2.83;;;8.80;99.90;;;;;;5054038;28;20040;-64
2023/04/11 03:19:36;;;;;;;14.25;2.95;;;8.90;99.90;;;;;;5054703;28;20532;-64
2023/04/11 03:22:04;;;;;;;10.32;2.33;;;8.80;99.90;;;;;;5054369;28;20021;-64
2023/04/11 03:24:31;;;;;;;12.95;2.83;;;8.80;99.90;;;;;;5053777;28;20040;-64
2023/04/11 03:26:57;;;;;;;12.25;3.63;;;8.80;99.90;;;;;;5054161;28;20096;-63
2023/04/11 03:29:23;;;;;;;9.65;2.38;;;8.70;99.90;;;;;;5036363;28;20028;-64
2023/04/11 03:31:49;;;;;;;9.55;2.00;;;8.70;99.90;;;;;;5035521;28;20028;-63
2023/04/11 03:34:16;;;;;;;8.90;2.20;;;8.60;99.90;;;;;;5054627;28;20052;-63
2023/04/11 03:36:42;;;;;;;14.82;2.17;;;8.50;99.90;;;;;;5054189;28;20051;-63
2023/04/11 03:39:08;;;;;;;14.48;2.30;;;8.50;99.90;;;;;;5052993;28;20049;-63
2023/04/11 03:41:34;;;;;;;10.73;2.22;;;8.40;99.90;;;;;;5054014;28;20033;-63
2023/04/11 03:44:00;;;;;;;11.10;2.60;;;8.40;99.90;;;;;;5053671;28;20043;-63
2023/04/11 03:46:26;;;;;;;6.35;1.88;;;8.40;99.90;;;;;;5053533;28;20396;-63
2023/04/11 03:48:51;;;;;;;7.75;2.90;;;8.50;99.90;;;;;;5035865;28;20057;-63
2023/04/11 03:51:17;;;;;;;7.55;2.28;;;8.50;99.90;;;;;;5053966;28;20021;-63
2023/04/11 03:53:42;;;;;;;18.05;2.55;;;8.30;99.90;;;;;;5052854;28;20393;-64
2023/04/11 03:56:09;;;;;;;5.43;1.83;;;8.00;99.90;;;;;;5053546;28;20032;-64
2023/04/11 03:58:35;;;;;;;6.50;1.92;;;7.80;99.90;;;;;;5053681;28;20025;-63
2023/04/11 04:01:01;;;;;;;6.38;2.15;;;7.60;99.90;;;;;;5052663;28;20044;-64
2023/04/11 04:03:27;;;;;;;8.48;2.03;;;7.60;99.90;;;;;;5035830;28;20103;-64
2023/04/11 04:05:52;;;;;;;8.95;2.08;;;7.60;99.90;;;;;;5035486;28;20110;-63
2023/04/11 04:08:18;;;;;;;11.05;2.10;;;7.60;99.90;;;;;;5053013;28;20021;-63
2023/04/11 04:10:45;;;;;;;7.60;2.10;;;7.60;99.90;;;;;;5053456;28;20021;-63
2023/04/11 04:13:11;;;;;;;12.15;2.80;;;7.70;99.90;;;;;;5053110;28;20473;-63
2023/04/11 04:15:37;;;;;;;11.23;3.25;;;7.70;99.90;;;;;;5066697;28;20032;-63
2023/04/11 04:18:03;;;;;;;11.07;2.05;;;7.70;99.90;;;;;;5073044;28;20024;-64
2023/04/11 04:20:28;;;;;;;8.07;2.20;;;7.70;99.90;;;;;;5072851;28;20041;-64
2023/04/11 04:22:54;;;;;;;12.18;2.58;;;7.60;99.90;;;;;;5073021;28;20027;-63
2023/04/11 04:25:20;;;;;;;10.63;1.70;;;7.60;99.90;;;;;;5073350;28;20030;-63
2023/04/11 04:27:46;;;;;;;12.02;2.60;;;7.60;99.90;;;;;;5057675;28;20033;-63
2023/04/11 04:30:14;;;;;;;9.75;1.90;;;7.60;99.90;;;;;;5053297;28;20031;-63
2023/04/11 04:32:44;;;;;;;15.10;2.40;;;7.70;99.90;;;;;;5053096;28;20021;-63
2023/04/11 04:35:10;;;;;;;13.35;2.25;;;7.70;99.90;;;;;;5018064;28;20028;-62
2023/04/11 04:37:44;;;;;;;13.10;1.63;;;7.70;99.90;;;;;;5053042;28;20040;-62
2023/04/11 04:40:12;;;;;;;9.77;2.03;;;7.70;99.90;;;;;;5052879;28;20037;-62
2023/04/11 04:42:40;;;;;;;7.80;1.75;;;7.70;99.90;;;;;;5035332;28;20029;-62
2023/04/11 04:45:07;;;;;;;6.47;2.03;;;7.70;99.90;;;;;;5055990;28;20473;-63
2023/04/11 04:47:35;;;;;;;10.38;2.08;;;7.80;99.90;;;;;;5050913;28;20052;-63
2023/04/11 04:50:01;;;;;;;6.28;1.85;;;7.80;99.90;;;;;;5050263;28;20268;-63
2023/04/11 04:52:28;;;;;;;7.88;2.90;;;7.80;99.90;;;;;;5052314;28;20416;-63
2023/04/11 04:54:57;;;;;;;10.70;2.63;;;7.80;99.90;;;;;;5051557;28;20488;-63
2023/04/11 04:57:27;;;;;;;10.82;1.80;;;7.80;99.90;;;;;;5051873;28;20378;-63
2023/04/11 04:59:54;;;;;;;10.60;1.70;;;7.90;99.90;;;;;;5051977;28;20025;-63
2023/04/11 05:02:20;;;;;;;4.22;1.55;;;7.90;99.90;;;;;;5051958;28;20086;-63
2023/04/11 05:04:47;;;;;;;6.88;1.90;;;7.90;99.90;;;;;;5052345;28;20025;-63
2023/04/11 05:07:13;;;;;;;8.32;1.60;;;8.00;99.90;;;;;;5052547;28;20021;-63
2023/04/11 05:09:39;;;;;;;16.23;3.20;;;8.00;99.90;;;;;;5051188;28;20507;-63
2023/04/11 05:12:05;;;;;;;6.82;1.75;;;8.00;99.90;;;;;;5052106;28;20029;-63
2023/04/11 05:14:30;;;;;;;9.48;2.47;;;8.00;99.90;;;;;;5052430;28;20021;-64
2023/04/11 05:16:56;;;;;;;6.88;1.88;;;8.00;99.90;;;;;;5051679;28;20104;-63
2023/04/11 05:19:21;;;;;;;5.55;1.50;;;8.00;99.90;;;;;;5052317;28;20377;-63
2023/04/11 05:21:47;;;;;;;10.90;1.55;;;8.00;99.90;;;;;;5052055;28;20462;-63
2023/04/11 05:24:13;;;;;;;7.80;2.00;;;8.10;99.90;;;;;;5033717;28;20060;-63
2023/04/11 05:26:39;;;;;;;14.07;2.92;;;8.10;99.90;;;;;;5053399;28;20025;-63
2023/04/11 05:29:05;;;;;;;9.07;1.60;;;8.10;99.90;;;;;;5066518;28;20048;-63
2023/04/11 05:31:31;;;;;;;6.07;1.73;;;8.10;99.90;;;;;;5051535;28;20021;-63
2023/04/11 05:33:57;;;;;;;13.75;2.55;;;8.10;99.90;;;;;;5063109;28;20035;-63
2023/04/11 05:36:23;;;;;;;6.07;1.70;;;8.00;99.90;;;;;;5053875;28;20027;-63
2023/04/11 05:38:49;;;;;;;4.78;1.70;;;8.00;99.90;;;;;;5070831;28;20043;-63
2023/04/11 05:41:15;;;;;;;8.07;1.73;;;8.10;99.90;;;;;;5072519;28;20383;-63
2023/04/11 05:43:40;;;;;;;3.97;1.33;;;8.10;99.90;;;;;;5071415;28;20410;-63
2023/04/11 05:46:06;;;;;;;7.90;1.95;;;8.20;99.90;;;;;;5071250;28;20587;-63
2023/04/11 05:48:32;;;;;;;10.60;1.90;;;8.10;99.90;;;;;;5064767;28;20024;-63
2023/04/11 05:50:58;;;;;;;5.68;1.65;;;8.10;99.90;;;;;;5051473;28;20029;-64
2023/04/11 05:53:24;;;;;;;5.60;1.55;;;8.10;99.90;;;;;;5051624;28;20021;-64
2023/04/11 05:55:49;;;;;;;7.97;1.50;;;8.10;99.90;;;;;;5051805;28;20487;-63
2023/04/11 05:58:15;;;;;;;10.10;2.20;;;8.10;99.90;;;;;;5051997;28;20492;-63
2023/04/11 06:00:41;;;;;;;6.32;1.80;;;8.00;99.90;;;;;;5051310;28;20033;-63
2023/04/11 06:03:08;;;;;;;5.35;1.45;;;8.00;99.90;;;;;;5033986;28;20053;-63
2023/04/11 06:05:34;;;;;;;5.38;1.35;;;7.90;99.90;;;;;;5056539;28;21044;-63
2023/04/11 06:08:01;;;;;;;9.93;1.58;;;7.90;99.90;;;;;;5071378;28;20024;-63
2023/04/11 06:10:28;;;;;;;11.77;1.65;;;7.90;99.90;;;;;;5072096;28;20024;-63
2023/04/11 06:12:54;;;;;;;5.97;1.50;;;7.80;99.90;;;;;;5057620;28;20032;-63
2023/04/11 06:15:21;;;;;;;6.07;1.33;;;7.90;99.90;;;;;;5051835;28;20023;-63
2023/04/11 06:17:46;;;;;;;4.55;1.60;;;7.80;99.90;;;;;;5059970;28;20021;-63
2023/04/11 06:20:13;;;;;;;11.30;1.40;;;7.90;99.90;;;;;;5071296;28;20036;-62
2023/04/11 06:22:39;;;;;;;8.55;1.75;;;7.90;99.90;;;;;;5074522;28;20142;-63
2023/04/11 06:25:06;;;;;;;8.25;1.15;;;7.90;99.90;;;;;;5044520;28;20127;-63
2023/04/11 06:27:31;;;;;;;4.50;1.27;;;7.90;99.90;;;;;;5055281;28;20108;-63
2023/04/11 06:29:57;;;;;;;5.80;1.80;;;7.90;99.90;;;;;;5055414;28;20037;-63
2023/04/11 06:32:24;;;;;;;6.43;1.48;;;8.00;99.90;;;;;;5055692;28;20031;-64
2023/04/11 06:34:50;;;;;;;9.35;1.70;;;8.00;99.90;;;;;;5055045;28;20036;-63
2023/04/11 06:37:15;;;;;;;6.10;1.15;;;8.10;99.90;;;;;;5055778;28;20017;-64
2023/04/11 06:39:41;;;;;;;7.25;1.50;;;8.10;99.90;;;;;;5055168;28;20555;-64
2023/04/11 06:42:07;;;;;;;6.22;1.00;;;8.20;99.90;;;;;;5054600;28;20056;-64
2023/04/11 06:44:32;;;;;;;5.70;1.20;;;8.20;99.90;;;;;;5037509;28;20458;-64
2023/04/11 06:46:58;;;;;;;6.47;1.45;;;8.30;99.90;;;;;;5054987;28;20059;-64
2023/04/11 06:49:24;;;;;;;8.48;1.50;;;8.30;99.90;;;;;;5054895;28;20037;-64
2023/04/11 06:51:50;;;;;;;4.68;1.40;;;8.40;99.90;;;;;;5065935;28;20044;-64
2023/04/11 06:54:17;;;;;;;5.18;1.50;;;8.50;99.90;;;;;;5060525;28;20060;-64
2023/04/11 06:56:44;;;;;;;5.07;1.30;;;8.50;99.90;;;;;;5060962;28;20024;-63
2023/04/11 06:59:10;;;;;;;6.28;1.60;;;8.60;99.90;;;;;;5039598;28;20016;-64
2023/04/11 07:01:39;;;;;;;7.60;1.95;;;8.60;99.90;;;;;;5053251;28;20090;-62
2023/04/11 07:04:05;;;;;;;7.10;1.60;;;8.70;99.90;;;;;;5068737;28;20070;-63
2023/04/11 07:06:31;;;;;;;4.38;1.45;;;8.70;99.90;;;;;;5073258;28;20060;-63
2023/04/11 07:09:00;;;;;;;8.60;1.40;;;8.80;99.90;;;;;;5054581;28;20506;-61
2023/04/11 07:11:25;;;;;;;8.90;1.45;;;8.80;99.90;;;;;;5073275;28;20035;-63
2023/04/11 07:13:51;;;;;;;5.40;1.45;;;8.90;99.90;;;;;;5070617;28;20029;-61
2023/04/11 07:16:16;;;;;;;5.75;1.60;;;9.00;99.90;;;;;;5064584;28;20020;-61
2023/04/11 07:18:43;;;;;;;8.00;1.45;;;9.10;99.90;;;;;;5058661;28;20488;-61
2023/04/11 07:21:12;;;;;;;6.22;1.50;;;9.10;99.90;;;;;;5053694;28;20077;-61
2023/04/11 07:23:39;;;;;;;8.63;1.20;;;9.20;99.90;;;;;;5053338;28;20017;-61
2023/04/11 07:26:10;;;;;;;6.03;1.27;;;9.20;99.90;;;;;;5068525;28;20036;-61
2023/04/11 07:28:39;;;;;;;8.30;1.60;;;9.30;99.90;;;;;;5058318;28;20024;-61
2023/04/11 07:31:08;;;;;;;9.23;1.90;;;9.40;99.90;;;;;;5069817;28;20358;-61
2023/04/11 07:33:35;;;;;;;9.73;2.33;;;9.50;99.90;;;;;;5053261;28;20029;-61
2023/04/11 07:36:01;;;;;;;10.27;2.22;;;9.70;99.90;;;;;;5072733;28;20032;-61
2023/04/11 07:38:28;;;;;;;6.88;1.40;;;9.80;99.90;;;;;;5071913;28;20037;-62
2023/04/11 07:40:55;;;;;;;3.92;1.58;;;9.90;99.90;;;;;;5073167;28;20058;-61
2023/04/11 07:43:21;;;;;;;4.90;1.40;;;10.10;99.90;;;;;;5073140;28;20066;-61
2023/04/11 07:45:46;;;;;;;6.93;2.00;;;10.30;99.90;;;;;;5072889;28;20033;-61
2023/04/11 07:48:12;;;;;;;9.98;1.80;;;10.40;99.90;;;;;;5072898;28;20023;-61
2023/04/11 07:50:37;;;;;;;6.03;1.13;;;10.40;99.90;;;;;;5073772;28;20039;-61
2023/04/11 07:53:03;;;;;;;7.93;1.63;;;10.30;99.90;;;;;;5063013;28;20031;-61
2023/04/11 07:55:29;;;;;;;10.02;1.65;;;10.20;99.90;;;;;;5057195;28;20067;-61
2023/04/11 07:57:54;;;;;;;7.93;2.05;;;10.20;99.90;;;;;;5072969;28;20016;-61
2023/04/11 08:00:22;;;;;;;8.93;1.50;;;10.20;99.90;;;;;;5072305;28;20058;-62
2023/04/11 08:02:47;;;;;;;7.03;1.50;;;10.20;99.90;;;;;;5073603;28;20024;-62
2023/04/11 08:05:13;;;;;;;5.88;1.50;;;10.30;99.90;;;;;;5072877;28;20103;-62
2023/04/11 08:07:40;;;;;;;5.57;1.42;;;10.30;99.90;;;;;;5073766;28;20048;-62
2023/04/11 08:10:06;;;;;;;7.47;1.33;;;10.30;99.90;;;;;;5073269;28;20036;-62
2023/04/11 08:12:32;;;;;;;9.82;1.65;;;10.30;99.90;;;;;;5072978;28;20017;-62
2023/04/11 08:14:58;;;;;;;7.93;1.60;;;10.40;99.90;;;;;;5073287;28;20426;-62
2023/04/11 08:17:27;;;;;;;5.47;1.15;;;10.60;99.70;;;;;;5072666;28;20498;-62
2023/04/11 08:19:54;;;;;;;5.93;1.52;;;10.70;99.10;;;;;;5072422;28;20037;-62
2023/04/11 08:22:19;;;;;;;6.30;1.27;;;10.80;98.40;;;;;;5055447;28;20036;-62
2023/04/11 08:24:45;;;;;;;7.93;1.48;;;11.00;96.70;;;;;;5072697;28;20028;-67
2023/04/11 08:27:10;;;;;;;6.82;1.50;;;11.10;96.10;;;;;;5072135;28;20378;-62
2023/04/11 08:29:36;;;;;;;3.90;1.30;;;11.30;94.90;;;;;;5054982;28;20029;-62
2023/04/11 08:32:03;;;;;;;8.38;1.65;;;11.40;95.30;;;;;;5072651;28;20036;-62
2023/04/11 08:34:31;;;;;;;4.03;1.13;;;11.60;94.30;;;;;;5072734;28;20024;-62
2023/04/11 08:36:56;;;;;;;5.47;1.70;;;11.60;93.70;;;;;;5073111;28;20032;-62
2023/04/11 08:39:22;;;;;;;4.55;1.40;;;11.60;94.40;;;;;;5073023;28;20090;-62
2023/04/11 08:41:48;;;;;;;8.68;1.23;;;11.50;94.60;;;;;;5072329;28;20056;-62
2023/04/11 08:44:13;;;;;;;5.80;1.55;;;11.20;94.60;;;;;;5072592;28;20472;-62
2023/04/11 08:46:43;;;;;;;8.73;1.83;;;10.90;94.90;;;;;;5072938;28;20024;-62
2023/04/11 08:49:09;;;;;;;4.07;1.17;;;10.70;96.00;;;;;;5072197;28;20017;-62
2023/04/11 08:51:35;;;;;;;5.95;1.63;;;10.70;95.20;;;;;;5072902;28;20032;-63
2023/04/11 08:54:04;;;;;;;4.90;1.60;;;10.80;94.40;;;;;;5072682;28;20021;-63
2023/04/11 08:56:31;;;;;;;6.00;1.60;;;11.00;94.20;;;;;;5072460;28;20074;-62
2023/04/11 08:58:56;;;;;;;5.47;1.08;;;11.20;93.00;;;;;;5072512;28;20062;-62
2023/04/11 09:01:32;;;;;;;6.65;1.48;;;11.40;91.20;;;;;;5072468;28;20113;-62
2023/04/11 09:03:59;;;;;;;4.75;1.08;;;11.50;90.20;;;;;;5072555;28;20025;-62
2023/04/11 09:06:29;;;;;;;3.17;1.15;;;11.40;90.10;;;;;;5072995;28;20013;-63
2023/04/11 09:08:58;;;;;;;7.35;1.20;;;11.20;89.20;;;;;;5053920;28;20028;-62
2023/04/11 09:11:25;;;;;;;7.32;1.67;;;11.10;88.20;;;;;;5072785;28;20495;-62
2023/04/11 09:14:06;;;;;;;8.57;1.83;;;11.00;87.50;;;;;;5072316;28;20051;-62
2023/04/11 09:16:32;;;;;;;6.43;1.23;;;10.80;86.60;;;;;;5072154;28;20027;-62
2023/04/11 09:18:58;;;;;;;6.72;1.40;;;10.70;87.80;;;;;;5072239;28;20024;-62
2023/04/11 09:21:23;;;;;;;6.57;1.05;;;10.60;87.60;;;;;;5072513;28;20037;-62
2023/04/11 09:23:49;;;;;;;4.80;1.48;;;10.50;87.50;;;;;;5071531;28;20059;-62
2023/04/11 09:26:26;;;;;;;6.55;1.50;;;10.50;87.10;;;;;;5072544;28;20384;-62
2023/04/11 09:28:52;;;;;;;4.78;1.00;;;10.50;86.60;;;;;;5054438;28;20020;-63
2023/04/11 09:31:36;;;;;;;6.88;1.60;;;10.60;87.50;;;;;;5072071;28;20054;-63
2023/04/11 09:34:02;;;;;;;6.72;1.42;;;10.70;87.50;;;;;;5054425;28;20052;-63
2023/04/11 09:36:27;;;;;;;9.10;1.80;;;10.80;87.10;;;;;;5072308;28;20052;-63
2023/04/11 09:38:54;;;;;;;6.60;1.52;;;10.90;86.30;;;;;;5071514;28;20428;-63
2023/04/11 09:41:34;;;;;;;9.57;1.48;;;11.10;86.70;;;;;;5072557;28;20093;-63
2023/04/11 09:44:01;;;;;;;6.18;1.30;;;11.30;87.30;;;;;;5071533;28;20023;-63
2023/04/11 09:46:26;;;;;;;4.72;1.33;;;11.60;87.00;;;;;;5072455;28;20020;-63
2023/04/11 09:48:56;;;;;;;5.70;1.42;;;11.80;85.50;;;;;;5053990;28;20519;-63
2023/04/11 09:51:22;;;;;;;9.07;2.58;;;12.00;83.30;;;;;;5071536;28;20036;-63
2023/04/11 09:53:47;;;;;;;6.97;1.35;;;12.10;82.90;;;;;;5053927;28;20072;-63
2023/04/11 09:56:13;;;;;;;7.90;1.50;;;12.00;82.80;;;;;;5056201;28;20073;-63
2023/04/11 09:58:40;;;;;;;6.68;1.27;;;11.80;82.40;;;;;;5075572;28;20047;-63
2023/04/11 10:01:08;;;;;;;5.15;0.82;;;11.60;80.50;;;;;;5058395;28;20036;-63
2023/04/11 10:03:35;;;;;;;6.25;1.17;;;11.60;78.30;;;;;;5058388;28;20028;-63
2023/04/11 10:06:08;;;;;;;3.08;1.30;;;11.60;75.20;;;;;;5075272;28;20025;-63
2023/04/11 10:08:36;;;;;;;3.67;0.95;;;11.70;74.40;;;;;;5076107;28;20027;-63
2023/04/11 10:11:08;;;;;;;3.60;1.27;;;11.70;72.60;;;;;;5057850;28;20094;-63
2023/04/11 10:13:45;;;;;;;4.93;1.13;;;11.70;71.60;;;;;;5057675;28;20013;-63
2023/04/11 10:16:16;;;;;;;4.45;1.08;;;11.80;70.30;;;;;;5058136;28;20033;-63
2023/04/11 10:19:03;;;;;;;5.68;1.40;;;11.80;71.00;;;;;;5076005;28;20096;-63
2023/04/11 10:21:31;;;;;;;4.22;1.15;;;12.00;71.90;;;;;;5059900;28;20037;-63
2023/04/11 10:24:10;;;;;;;5.50;1.40;;;12.10;71.20;;;;;;5075696;28;20599;-63
2023/04/11 10:27:02;;;;;;;5.15;1.35;;;12.00;70.00;;;;;;5075147;28;20075;-63
2023/04/11 10:29:27;;;;;;;5.93;1.58;;;12.10;71.90;;;;;;5064596;28;20477;-63
2023/04/11 10:32:17;;;;;;;4.40;1.25;;;12.20;71.50;;;;;;5075468;28;20021;-63
2023/04/11 10:34:49;;;;;;;4.20;1.50;;;12.30;72.20;;;;;;5057236;28;20024;-63
2023/04/11 10:37:16;;;;;;;2.72;0.98;;;12.20;71.90;;;;;;5075759;28;20033;-63
2023/04/11 10:39:50;;;;;;;6.93;1.13;;;12.10;72.60;;;;;;5075188;28;20037;-63
2023/04/11 10:42:37;;;;;;;5.50;1.48;;;12.10;72.00;;;;;;5057463;28;20477;-63
2023/04/11 10:45:27;;;;;;;8.48;1.38;;;12.00;72.30;;;;;;5075108;28;20032;-63
2023/04/11 10:47:55;;;;;;;4.93;1.38;;;12.00;72.70;;;;;;5074602;28;20032;-63
2023/04/11 10:50:27;;;;;;;6.65;1.27;;;12.20;68.30;;;;;;5075338;28;20104;-63
2023/04/11 10:52:54;;;;;;;5.43;1.05;;;12.30;71.30;;;;;;5075035;28;20026;-64
2023/04/11 10:55:20;;;;;;;3.53;1.00;;;12.40;69.60;;;;;;5074666;28;20396;-64
2023/04/11 10:58:08;;;;;;;2.92;1.00;;;12.50;67.50;;;;;;5074959;28;20066;-63
2023/04/11 11:00:48;;;;;;;6.93;1.85;;;12.50;68.10;;;;;;5075212;28;20187;-64
2023/04/11 11:03:14;;;;;;;4.28;1.00;;;12.40;66.50;;;;;;5074366;28;20032;-64
2023/04/11 11:05:40;;;;;;;5.47;1.02;;;12.30;66.20;;;;;;5075041;28;20028;-64
2023/04/11 11:08:06;;;;;;;5.30;1.40;;;12.20;66.30;;;;;;5073590;28;20439;-64
2023/04/11 11:10:50;;;;;;;3.25;1.00;;;12.10;65.10;;;;;;5075470;28;20116;-64
2023/04/11 11:13:16;;;;;;;3.78;0.95;;;11.90;66.70;;;;;;5057350;28;20013;-64
2023/04/11 11:15:48;;;;;;;5.72;1.08;;;11.90;66.50;;;;;;5074243;28;20024;-64
2023/04/11 11:18:17;;;;;;;4.78;1.30;;;11.80;65.00;;;;;;5075090;28;20020;-64
2023/04/11 11:20:42;;;;;;;4.45;0.98;;;11.70;63.10;;;;;;5075311;28;20044;-64
2023/04/11 11:23:10;;;;;;;5.47;1.30;;;11.70;63.10;;;;;;5074066;28;20025;-63
2023/04/11 11:25:36;;;;;;;4.65;1.30;;;11.70;63.60;;;;;;5074960;28;20036;-63
2023/04/11 11:28:04;;;;;;;4.40;1.08;;;11.70;64.10;;;;;;5074740;28;20103;-63
2023/04/11 11:30:30;;;;;;;3.13;1.23;;;11.70;65.30;;;;;;5074148;28;20024;-64
2023/04/11 11:32:55;;;;;;;7.13;1.20;;;11.70;65.20;;;;;;5074508;28;20020;-64
2023/04/11 11:35:22;;;;;;;4.13;1.35;;;11.70;64.80;;;;;;5074923;28;20070;-64
2023/04/11 11:37:52;;;;;;;2.90;0.93;;;11.80;63.70;;;;;;5073912;28;20028;-64
2023/04/11 11:40:21;;;;;;;4.18;0.90;;;12.00;62.20;;;;;;5074150;28;20051;-64
2023/04/11 11:42:51;;;;;;;2.72;0.80;;;12.10;62.50;;;;;;5074188;28;20492;-64
2023/04/11 11:45:20;;;;;;;3.63;0.90;;;12.20;60.30;;;;;;5074140;28;20025;-64
2023/04/11 11:47:48;;;;;;;4.45;1.00;;;12.20;59.20;;;;;;5073853;28;20016;-63
2023/04/11 11:50:31;;;;;;;3.55;1.00;;;12.20;59.70;;;;;;5055946;28;20036;-64
2023/04/11 11:53:14;;;;;;;2.42;0.85;;;12.10;59.20;;;;;;5074042;28;20071;-64
2023/04/11 11:55:41;;;;;;;6.05;1.02;;;12.00;60.40;;;;;;5074267;28;20457;-64
2023/04/11 11:58:06;;;;;;;3.72;0.95;;;12.00;60.70;;;;;;5073314;28;20538;-63
2023/04/11 12:00:39;;;;;;;5.38;1.10;;;12.00;61.10;;;;;;5074335;28;20108;-63
2023/04/11 12:03:08;;;;;;;4.30;1.13;;;12.00;62.10;;;;;;5073823;28;20040;-64
2023/04/11 12:05:35;;;;;;;4.15;1.02;;;12.20;62.50;;;;;;5073468;28;20353;-64
2023/04/11 12:08:03;;;;;;;3.65;1.10;;;12.30;59.60;;;;;;5073370;28;20546;-64
2023/04/11 12:10:44;;;;;;;2.95;0.77;;;12.40;58.80;;;;;;5074243;28;20025;-64
2023/04/11 12:13:19;;;;;;;3.95;1.02;;;12.40;58.00;;;;;;5073441;28;20028;-63
2023/04/11 12:15:50;;;;;;;2.50;0.90;;;12.40;58.00;;;;;;5073598;28;20095;-64
2023/04/11 12:18:19;;;;;;;4.47;1.10;;;12.30;58.90;;;;;;5073673;28;20028;-64
2023/04/11 12:20:45;;;;;;;3.67;0.85;;;12.50;58.80;;;;;;5054535;28;20090;-64
2023/04/11 12:23:10;;;;;;;2.97;0.85;;;12.50;58.10;;;;;;5073793;28;20028;-63
2023/04/11 12:25:36;;;;;;;3.47;1.02;;;12.70;59.40;;;;;;5072855;28;20421;-64
2023/04/11 12:28:02;;;;;;;3.67;1.00;;;12.80;59.90;;;;;;5073232;28;20020;-63
2023/04/11 12:30:27;;;;;;;4.63;1.10;;;13.00;59.00;;;;;;5073459;28;20033;-64
2023/04/11 12:32:53;;;;;;;3.80;1.05;;;13.10;59.20;;;;;;5072415;28;20020;-64
2023/04/11 12:35:18;;;;;;;5.43;1.13;;;13.30;59.70;;;;;;5073371;28;20066;-64
2023/04/11 12:37:44;;;;;;;2.97;0.82;;;13.40;60.20;;;;;;5073184;28;20042;-64
2023/04/11 12:40:14;;;;;;;6.22;1.10;;;13.50;58.30;;;;;;5072772;28;20040;-64
2023/04/11 12:42:41;;;;;;;5.47;1.42;;;13.40;57.80;;;;;;5055342;28;20103;-63
2023/04/11 12:45:07;;;;;;;2.80;0.90;;;13.40;56.90;;;;;;5055010;28;20025;-64
2023/04/11 12:47:34;;;;;;;4.13;1.27;;;13.20;58.30;;;;;;5072819;28;20073;-64
2023/04/11 12:49:59;;;;;;;6.32;1.27;;;13.10;59.20;;;;;;5072745;28;20023;-64
2023/04/11 12:52:25;;;;;;;4.45;1.25;;;13.20;59.00;;;;;;5073337;28;20024;-64